sensor_id;sensor_type;location;lat;lon;timestamp;P1;durP1;ratioP1;P2;durP2;ratioP2
23866;SDS011;12114;53.404;-1.502;2024-01-07T00:01:24;15.10;;;9.73;;
23866;SDS011;12114;53.404;-1.502;2024-01-07T00:04:08;17.50;;;9.05;;
23866;SDS011;12114;53.404;-1.502;2024-01-07T00:06:52;19.98;;;9.50;;
23866;SDS011;12114;53.404;-1.502;2024-01-07T00:09:36;16.85;;;8.50;;
23866;SDS011;12114;53.404;-1.502;2024-01-07T00:12:20;18.63;;;9.57;;
23866;SDS011;12114;53.404;-1.502;2024-01-07T00:15:07;17.13;;;10.38;;
23866;SDS011;12114;53.404;-1.502;2024-01-07T00:17:52;19.38;;;9.48;;
23866;SDS011;12114;53.404;-1.502;2024-01-07T00:20:35;17.83;;;10.65;;
23866;SDS011;12114;53.404;-1.502;2024-01-07T00:23:20;21.60;;;10.65;;
23866;SDS011;12114;53.404;-1.502;2024-01-07T00:26:06;16.45;;;9.95;;
23866;SDS011;12114;53.404;-1.502;2024-01-07T00:28:51;20.95;;;9.95;;
23866;SDS011;12114;53.404;-1.502;2024-01-07T00:31:35;18.27;;;9.50;;
23866;SDS011;12114;53.404;-1.502;2024-01-07T00:34:19;21.25;;;10.48;;
23866;SDS011;12114;53.404;-1.502;2024-01-07T00:37:03;17.70;;;10.10;;
23866;SDS011;12114;53.404;-1.502;2024-01-07T00:39:47;19.25;;;10.63;;
23866;SDS011;12114;53.404;-1.502;2024-01-07T00:42:32;18.15;;;10.27;;
23866;SDS011;12114;53.404;-1.502;2024-01-07T00:45:16;18.50;;;11.60;;
23866;SDS011;12114;53.404;-1.502;2024-01-07T00:47:59;19.35;;;11.38;;
23866;SDS011;12114;53.404;-1.502;2024-01-07T00:50:43;20.55;;;11.65;;
23866;SDS011;12114;53.404;-1.502;2024-01-07T00:53:27;21.35;;;12.60;;
23866;SDS011;12114;53.404;-1.502;2024-01-07T00:56:11;18.08;;;11.75;;
23866;SDS011;12114;53.404;-1.502;2024-01-07T00:58:58;24.95;;;13.80;;
23866;SDS011;12114;53.404;-1.502;2024-01-07T01:01:42;23.85;;;13.68;;
23866;SDS011;12114;53.404;-1.502;2024-01-07T01:04:27;27.02;;;13.65;;
23866;SDS011;12114;53.404;-1.502;2024-01-07T01:07:11;25.27;;;14.25;;
23866;SDS011;12114;53.404;-1.502;2024-01-07T01:09:58;25.48;;;14.00;;
23866;SDS011;12114;53.404;-1.502;2024-01-07T01:12:42;18.88;;;13.00;;
23866;SDS011;12114;53.404;-1.502;2024-01-07T01:18:11;24.30;;;11.93;;
23866;SDS011;12114;53.404;-1.502;2024-01-07T01:20:55;21.90;;;12.60;;
23866;SDS011;12114;53.404;-1.502;2024-01-07T01:23:40;20.75;;;11.55;;
23866;SDS011;12114;53.404;-1.502;2024-01-07T01:26:24;19.15;;;11.48;;
23866;SDS011;12114;53.404;-1.502;2024-01-07T01:29:08;19.10;;;9.75;;
23866;SDS011;12114;53.404;-1.502;2024-01-07T01:31:52;25.58;;;10.90;;
23866;SDS011;12114;53.404;-1.502;2024-01-07T01:34:36;21.05;;;11.00;;
23866;SDS011;12114;53.404;-1.502;2024-01-07T01:37:20;21.27;;;10.45;;
23866;SDS011;12114;53.404;-1.502;2024-01-07T01:40:04;22.58;;;9.57;;
23866;SDS011;12114;53.404;-1.502;2024-01-07T01:42:48;19.33;;;9.70;;
23866;SDS011;12114;53.404;-1.502;2024-01-07T01:45:32;18.98;;;10.02;;
23866;SDS011;12114;53.404;-1.502;2024-01-07T01:48:17;17.70;;;9.38;;
23866;SDS011;12114;53.404;-1.502;2024-01-07T01:51:01;20.50;;;10.63;;
23866;SDS011;12114;53.404;-1.502;2024-01-07T01:53:46;21.85;;;10.23;;
23866;SDS011;12114;53.404;-1.502;2024-01-07T01:56:31;23.20;;;10.60;;
23866;SDS011;12114;53.404;-1.502;2024-01-07T01:59:17;22.70;;;11.65;;
23866;SDS011;12114;53.404;-1.502;2024-01-07T02:02:02;20.40;;;11.38;;
23866;SDS011;12114;53.404;-1.502;2024-01-07T02:04:46;27.88;;;11.25;;
23866;SDS011;12114;53.404;-1.502;2024-01-07T02:07:30;19.00;;;11.00;;
23866;SDS011;12114;53.404;-1.502;2024-01-07T02:10:14;20.95;;;11.63;;
23866;SDS011;12114;53.404;-1.502;2024-01-07T02:12:59;23.55;;;13.40;;
23866;SDS011;12114;53.404;-1.502;2024-01-07T02:15:47;23.73;;;12.77;;
23866;SDS011;12114;53.404;-1.502;2024-01-07T02:18:31;23.67;;;13.02;;
23866;SDS011;12114;53.404;-1.502;2024-01-07T02:21:15;26.00;;;14.68;;
23866;SDS011;12114;53.404;-1.502;2024-01-07T02:24:04;30.73;;;14.38;;
23866;SDS011;12114;53.404;-1.502;2024-01-07T02:26:48;32.53;;;14.50;;
23866;SDS011;12114;53.404;-1.502;2024-01-07T02:29:32;25.83;;;13.75;;
23866;SDS011;12114;53.404;-1.502;2024-01-07T02:32:16;24.75;;;14.10;;
23866;SDS011;12114;53.404;-1.502;2024-01-07T02:35:00;21.05;;;13.30;;
23866;SDS011;12114;53.404;-1.502;2024-01-07T02:37:44;24.35;;;14.30;;
23866;SDS011;12114;53.404;-1.502;2024-01-07T02:40:28;23.88;;;14.18;;
23866;SDS011;12114;53.404;-1.502;2024-01-07T02:43:12;25.67;;;13.55;;
23866;SDS011;12114;53.404;-1.502;2024-01-07T02:45:56;24.17;;;14.30;;
23866;SDS011;12114;53.404;-1.502;2024-01-07T02:48:40;25.33;;;15.90;;
23866;SDS011;12114;53.404;-1.502;2024-01-07T02:51:24;23.02;;;13.95;;
23866;SDS011;12114;53.404;-1.502;2024-01-07T02:54:08;28.15;;;14.15;;
23866;SDS011;12114;53.404;-1.502;2024-01-07T02:56:52;23.48;;;12.15;;
23866;SDS011;12114;53.404;-1.502;2024-01-07T02:59:36;23.92;;;12.50;;
23866;SDS011;12114;53.404;-1.502;2024-01-07T03:02:20;23.13;;;12.82;;
23866;SDS011;12114;53.404;-1.502;2024-01-07T03:05:04;18.13;;;8.40;;
23866;SDS011;12114;53.404;-1.502;2024-01-07T03:07:48;20.67;;;8.30;;
23866;SDS011;12114;53.404;-1.502;2024-01-07T03:10:32;16.98;;;8.30;;
23866;SDS011;12114;53.404;-1.502;2024-01-07T03:13:17;15.40;;;8.18;;
23866;SDS011;12114;53.404;-1.502;2024-01-07T03:16:01;13.90;;;8.10;;
23866;SDS011;12114;53.404;-1.502;2024-01-07T03:18:45;17.27;;;8.43;;
23866;SDS011;12114;53.404;-1.502;2024-01-07T03:21:29;18.98;;;9.10;;
23866;SDS011;12114;53.404;-1.502;2024-01-07T03:24:13;17.48;;;8.57;;
23866;SDS011;12114;53.404;-1.502;2024-01-07T03:26:57;17.13;;;8.68;;
23866;SDS011;12114;53.404;-1.502;2024-01-07T03:29:41;24.65;;;9.02;;
23866;SDS011;12114;53.404;-1.502;2024-01-07T03:32:25;20.80;;;8.40;;
23866;SDS011;12114;53.404;-1.502;2024-01-07T03:35:09;23.58;;;8.48;;
23866;SDS011;12114;53.404;-1.502;2024-01-07T03:37:53;16.05;;;8.57;;
23866;SDS011;12114;53.404;-1.502;2024-01-07T03:40:37;18.80;;;8.82;;
23866;SDS011;12114;53.404;-1.502;2024-01-07T03:43:21;20.67;;;8.27;;
23866;SDS011;12114;53.404;-1.502;2024-01-07T03:46:05;17.90;;;7.72;;
23866;SDS011;12114;53.404;-1.502;2024-01-07T03:48:49;21.35;;;8.85;;
23866;SDS011;12114;53.404;-1.502;2024-01-07T03:51:33;20.13;;;7.97;;
23866;SDS011;12114;53.404;-1.502;2024-01-07T03:54:17;14.43;;;7.55;;
23866;SDS011;12114;53.404;-1.502;2024-01-07T03:57:01;19.23;;;7.63;;
23866;SDS011;12114;53.404;-1.502;2024-01-07T03:59:45;16.50;;;7.18;;
23866;SDS011;12114;53.404;-1.502;2024-01-07T04:02:29;17.98;;;7.40;;
23866;SDS011;12114;53.404;-1.502;2024-01-07T04:05:13;11.52;;;7.03;;
23866;SDS011;12114;53.404;-1.502;2024-01-07T04:08:02;14.50;;;7.72;;
23866;SDS011;12114;53.404;-1.502;2024-01-07T04:10:46;19.15;;;8.50;;
23866;SDS011;12114;53.404;-1.502;2024-01-07T04:13:30;20.70;;;8.57;;
23866;SDS011;12114;53.404;-1.502;2024-01-07T04:16:20;15.70;;;7.80;;
23866;SDS011;12114;53.404;-1.502;2024-01-07T04:19:05;18.88;;;7.90;;
23866;SDS011;12114;53.404;-1.502;2024-01-07T04:21:49;20.20;;;8.50;;
23866;SDS011;12114;53.404;-1.502;2024-01-07T04:24:33;20.30;;;9.27;;
23866;SDS011;12114;53.404;-1.502;2024-01-07T04:27:17;19.42;;;8.10;;
23866;SDS011;12114;53.404;-1.502;2024-01-07T04:30:01;17.92;;;7.95;;
23866;SDS011;12114;53.404;-1.502;2024-01-07T04:32:46;18.65;;;7.72;;
23866;SDS011;12114;53.404;-1.502;2024-01-07T04:35:30;20.27;;;7.97;;
23866;SDS011;12114;53.404;-1.502;2024-01-07T04:38:14;26.45;;;7.20;;
23866;SDS011;12114;53.404;-1.502;2024-01-07T04:40:58;13.95;;;6.47;;
23866;SDS011;12114;53.404;-1.502;2024-01-07T04:43:42;16.92;;;5.90;;
23866;SDS011;12114;53.404;-1.502;2024-01-07T04:46:27;13.70;;;6.57;;
23866;SDS011;12114;53.404;-1.502;2024-01-07T04:49:11;11.80;;;5.95;;
23866;SDS011;12114;53.404;-1.502;2024-01-07T04:51:55;12.20;;;5.53;;
23866;SDS011;12114;53.404;-1.502;2024-01-07T04:54:39;15.13;;;5.75;;
23866;SDS011;12114;53.404;-1.502;2024-01-07T04:57:23;12.75;;;6.43;;
23866;SDS011;12114;53.404;-1.502;2024-01-07T05:00:07;18.63;;;5.80;;
23866;SDS011;12114;53.404;-1.502;2024-01-07T05:02:51;12.85;;;5.32;;
23866;SDS011;12114;53.404;-1.502;2024-01-07T05:05:35;14.23;;;5.25;;
23866;SDS011;12114;53.404;-1.502;2024-01-07T05:08:22;13.02;;;4.65;;
23866;SDS011;12114;53.404;-1.502;2024-01-07T05:11:06;12.18;;;4.53;;
23866;SDS011;12114;53.404;-1.502;2024-01-07T05:13:51;7.45;;;4.50;;
23866;SDS011;12114;53.404;-1.502;2024-01-07T05:16:35;9.48;;;4.40;;
23866;SDS011;12114;53.404;-1.502;2024-01-07T05:19:19;15.73;;;4.40;;
23866;SDS011;12114;53.404;-1.502;2024-01-07T05:22:03;8.52;;;4.60;;
23866;SDS011;12114;53.404;-1.502;2024-01-07T05:24:47;15.30;;;3.90;;
23866;SDS011;12114;53.404;-1.502;2024-01-07T05:27:31;10.75;;;4.00;;
23866;SDS011;12114;53.404;-1.502;2024-01-07T05:30:15;11.40;;;4.10;;
23866;SDS011;12114;53.404;-1.502;2024-01-07T05:32:58;12.88;;;4.55;;
23866;SDS011;12114;53.404;-1.502;2024-01-07T05:35:42;12.65;;;4.80;;
23866;SDS011;12114;53.404;-1.502;2024-01-07T05:38:26;12.70;;;4.20;;
23866;SDS011;12114;53.404;-1.502;2024-01-07T05:41:10;12.82;;;4.20;;
23866;SDS011;12114;53.404;-1.502;2024-01-07T05:43:57;11.10;;;4.45;;
23866;SDS011;12114;53.404;-1.502;2024-01-07T05:46:41;17.52;;;5.05;;
23866;SDS011;12114;53.404;-1.502;2024-01-07T05:49:28;9.75;;;4.47;;
23866;SDS011;12114;53.404;-1.502;2024-01-07T05:52:12;13.70;;;4.55;;
23866;SDS011;12114;53.404;-1.502;2024-01-07T05:54:56;13.00;;;5.20;;
23866;SDS011;12114;53.404;-1.502;2024-01-07T05:57:40;10.07;;;4.90;;
23866;SDS011;12114;53.404;-1.502;2024-01-07T06:00:24;15.52;;;4.43;;
23866;SDS011;12114;53.404;-1.502;2024-01-07T06:03:10;10.70;;;4.47;;
23866;SDS011;12114;53.404;-1.502;2024-01-07T06:05:57;11.80;;;4.53;;
23866;SDS011;12114;53.404;-1.502;2024-01-07T06:08:44;12.13;;;4.93;;
23866;SDS011;12114;53.404;-1.502;2024-01-07T06:11:28;12.05;;;4.72;;
23866;SDS011;12114;53.404;-1.502;2024-01-07T06:14:12;12.82;;;4.80;;
23866;SDS011;12114;53.404;-1.502;2024-01-07T06:16:56;12.95;;;4.80;;
23866;SDS011;12114;53.404;-1.502;2024-01-07T06:19:43;11.27;;;4.85;;
23866;SDS011;12114;53.404;-1.502;2024-01-07T06:22:28;9.13;;;4.00;;
23866;SDS011;12114;53.404;-1.502;2024-01-07T06:25:11;10.23;;;3.95;;
23866;SDS011;12114;53.404;-1.502;2024-01-07T06:27:56;9.45;;;3.67;;
23866;SDS011;12114;53.404;-1.502;2024-01-07T06:30:43;8.05;;;3.72;;
23866;SDS011;12114;53.404;-1.502;2024-01-07T06:33:27;9.27;;;3.85;;
23866;SDS011;12114;53.404;-1.502;2024-01-07T06:36:11;13.88;;;3.85;;
23866;SDS011;12114;53.404;-1.502;2024-01-07T06:38:55;11.48;;;3.30;;
23866;SDS011;12114;53.404;-1.502;2024-01-07T06:41:39;11.13;;;3.42;;
23866;SDS011;12114;53.404;-1.502;2024-01-07T06:44:26;10.48;;;3.55;;
23866;SDS011;12114;53.404;-1.502;2024-01-07T06:47:10;12.55;;;3.60;;
23866;SDS011;12114;53.404;-1.502;2024-01-07T06:49:54;11.88;;;3.70;;
23866;SDS011;12114;53.404;-1.502;2024-01-07T06:52:38;11.82;;;3.75;;
23866;SDS011;12114;53.404;-1.502;2024-01-07T06:55:22;6.45;;;3.33;;
23866;SDS011;12114;53.404;-1.502;2024-01-07T06:58:09;9.63;;;3.67;;
23866;SDS011;12114;53.404;-1.502;2024-01-07T07:00:53;14.15;;;4.15;;
23866;SDS011;12114;53.404;-1.502;2024-01-07T07:03:37;10.80;;;3.75;;
23866;SDS011;12114;53.404;-1.502;2024-01-07T07:06:21;9.50;;;4.55;;
23866;SDS011;12114;53.404;-1.502;2024-01-07T07:09:05;15.73;;;4.85;;
23866;SDS011;12114;53.404;-1.502;2024-01-07T07:11:49;14.25;;;4.50;;
23866;SDS011;12114;53.404;-1.502;2024-01-07T07:14:33;10.52;;;4.78;;
23866;SDS011;12114;53.404;-1.502;2024-01-07T07:17:17;12.82;;;6.10;;
23866;SDS011;12114;53.404;-1.502;2024-01-07T07:20:01;18.85;;;6.25;;
23866;SDS011;12114;53.404;-1.502;2024-01-07T07:22:46;13.65;;;5.75;;
23866;SDS011;12114;53.404;-1.502;2024-01-07T07:25:30;16.02;;;6.57;;
23866;SDS011;12114;53.404;-1.502;2024-01-07T07:28:13;12.70;;;6.63;;
23866;SDS011;12114;53.404;-1.502;2024-01-07T07:30:57;14.27;;;6.35;;
23866;SDS011;12114;53.404;-1.502;2024-01-07T07:33:41;18.02;;;7.38;;
23866;SDS011;12114;53.404;-1.502;2024-01-07T07:36:25;14.30;;;6.43;;
23866;SDS011;12114;53.404;-1.502;2024-01-07T07:39:09;13.02;;;6.88;;
23866;SDS011;12114;53.404;-1.502;2024-01-07T07:41:54;11.13;;;6.57;;
23866;SDS011;12114;53.404;-1.502;2024-01-07T07:44:38;12.27;;;4.82;;
23866;SDS011;12114;53.404;-1.502;2024-01-07T07:47:23;13.98;;;6.35;;
23866;SDS011;12114;53.404;-1.502;2024-01-07T07:50:07;11.13;;;4.78;;
23866;SDS011;12114;53.404;-1.502;2024-01-07T07:52:51;11.75;;;5.63;;
23866;SDS011;12114;53.404;-1.502;2024-01-07T07:55:35;14.43;;;5.10;;
23866;SDS011;12114;53.404;-1.502;2024-01-07T07:58:19;17.13;;;5.68;;
23866;SDS011;12114;53.404;-1.502;2024-01-07T08:01:03;14.23;;;5.70;;
23866;SDS011;12114;53.404;-1.502;2024-01-07T08:03:48;10.50;;;5.47;;
23866;SDS011;12114;53.404;-1.502;2024-01-07T08:06:32;14.93;;;6.03;;
23866;SDS011;12114;53.404;-1.502;2024-01-07T08:09:16;12.10;;;6.43;;
23866;SDS011;12114;53.404;-1.502;2024-01-07T08:12:00;14.52;;;6.97;;
23866;SDS011;12114;53.404;-1.502;2024-01-07T08:14:44;15.45;;;6.88;;
23866;SDS011;12114;53.404;-1.502;2024-01-07T08:17:29;17.23;;;7.00;;
23866;SDS011;12114;53.404;-1.502;2024-01-07T08:20:13;18.65;;;6.68;;
23866;SDS011;12114;53.404;-1.502;2024-01-07T08:22:57;15.55;;;8.20;;
23866;SDS011;12114;53.404;-1.502;2024-01-07T08:25:41;13.00;;;7.63;;
23866;SDS011;12114;53.404;-1.502;2024-01-07T08:28:25;16.25;;;7.63;;
23866;SDS011;12114;53.404;-1.502;2024-01-07T08:31:09;13.80;;;7.22;;
23866;SDS011;12114;53.404;-1.502;2024-01-07T08:33:54;12.00;;;5.68;;
23866;SDS011;12114;53.404;-1.502;2024-01-07T08:36:38;12.93;;;6.80;;
23866;SDS011;12114;53.404;-1.502;2024-01-07T08:39:21;15.98;;;7.70;;
23866;SDS011;12114;53.404;-1.502;2024-01-07T08:42:05;17.00;;;6.93;;
23866;SDS011;12114;53.404;-1.502;2024-01-07T08:44:49;16.45;;;7.45;;
23866;SDS011;12114;53.404;-1.502;2024-01-07T08:47:33;15.63;;;7.13;;
23866;SDS011;12114;53.404;-1.502;2024-01-07T08:50:20;11.48;;;7.03;;
23866;SDS011;12114;53.404;-1.502;2024-01-07T08:53:04;10.48;;;6.13;;
23866;SDS011;12114;53.404;-1.502;2024-01-07T08:55:48;18.00;;;7.03;;
23866;SDS011;12114;53.404;-1.502;2024-01-07T08:58:35;17.00;;;8.38;;
23866;SDS011;12114;53.404;-1.502;2024-01-07T09:01:20;18.00;;;6.88;;
23866;SDS011;12114;53.404;-1.502;2024-01-07T09:04:04;10.02;;;5.90;;
23866;SDS011;12114;53.404;-1.502;2024-01-07T09:06:48;12.98;;;6.57;;
23866;SDS011;12114;53.404;-1.502;2024-01-07T09:09:32;12.95;;;6.18;;
23866;SDS011;12114;53.404;-1.502;2024-01-07T09:12:19;11.20;;;6.28;;
23866;SDS011;12114;53.404;-1.502;2024-01-07T09:15:07;15.45;;;5.65;;
23866;SDS011;12114;53.404;-1.502;2024-01-07T09:17:54;11.20;;;5.43;;
23866;SDS011;12114;53.404;-1.502;2024-01-07T09:20:38;10.27;;;5.65;;
23866;SDS011;12114;53.404;-1.502;2024-01-07T09:23:22;11.10;;;5.80;;
23866;SDS011;12114;53.404;-1.502;2024-01-07T09:26:06;12.90;;;5.70;;
23866;SDS011;12114;53.404;-1.502;2024-01-07T09:28:51;14.00;;;6.10;;
23866;SDS011;12114;53.404;-1.502;2024-01-07T09:31:35;12.27;;;5.57;;
23866;SDS011;12114;53.404;-1.502;2024-01-07T09:34:20;14.48;;;6.47;;
23866;SDS011;12114;53.404;-1.502;2024-01-07T09:37:04;12.05;;;5.68;;
23866;SDS011;12114;53.404;-1.502;2024-01-07T09:39:48;10.95;;;5.68;;
23866;SDS011;12114;53.404;-1.502;2024-01-07T09:42:32;12.18;;;5.93;;
23866;SDS011;12114;53.404;-1.502;2024-01-07T09:45:16;9.13;;;5.25;;
23866;SDS011;12114;53.404;-1.502;2024-01-07T09:48:02;9.98;;;4.65;;
23866;SDS011;12114;53.404;-1.502;2024-01-07T09:50:46;11.48;;;5.30;;
23866;SDS011;12114;53.404;-1.502;2024-01-07T09:53:31;14.23;;;6.13;;
23866;SDS011;12114;53.404;-1.502;2024-01-07T09:56:20;8.57;;;4.50;;
23866;SDS011;12114;53.404;-1.502;2024-01-07T09:59:09;11.38;;;5.00;;
23866;SDS011;12114;53.404;-1.502;2024-01-07T10:01:54;10.10;;;4.38;;
23866;SDS011;12114;53.404;-1.502;2024-01-07T10:04:39;9.25;;;4.25;;
23866;SDS011;12114;53.404;-1.502;2024-01-07T10:07:24;8.55;;;3.00;;
23866;SDS011;12114;53.404;-1.502;2024-01-07T10:10:13;9.10;;;2.47;;
23866;SDS011;12114;53.404;-1.502;2024-01-07T10:12:56;8.77;;;2.33;;
23866;SDS011;12114;53.404;-1.502;2024-01-07T10:15:40;7.22;;;2.55;;
23866;SDS011;12114;53.404;-1.502;2024-01-07T10:18:24;6.60;;;1.98;;
23866;SDS011;12114;53.404;-1.502;2024-01-07T10:21:09;6.03;;;2.40;;
23866;SDS011;12114;53.404;-1.502;2024-01-07T10:24:09;9.02;;;2.47;;
23866;SDS011;12114;53.404;-1.502;2024-01-07T10:26:55;5.30;;;2.42;;
23866;SDS011;12114;53.404;-1.502;2024-01-07T10:29:39;7.45;;;2.75;;
23866;SDS011;12114;53.404;-1.502;2024-01-07T10:32:24;5.60;;;2.70;;
23866;SDS011;12114;53.404;-1.502;2024-01-07T10:35:08;5.75;;;2.67;;
23866;SDS011;12114;53.404;-1.502;2024-01-07T10:37:56;8.00;;;2.95;;
23866;SDS011;12114;53.404;-1.502;2024-01-07T10:40:40;6.70;;;2.90;;
23866;SDS011;12114;53.404;-1.502;2024-01-07T10:43:26;4.60;;;2.38;;
23866;SDS011;12114;53.404;-1.502;2024-01-07T10:46:13;7.45;;;2.22;;
23866;SDS011;12114;53.404;-1.502;2024-01-07T10:48:59;8.02;;;2.20;;
23866;SDS011;12114;53.404;-1.502;2024-01-07T10:52:06;4.55;;;2.13;;
23866;SDS011;12114;53.404;-1.502;2024-01-07T10:54:51;8.98;;;2.70;;
23866;SDS011;12114;53.404;-1.502;2024-01-07T11:00:28;8.60;;;3.20;;
23866;SDS011;12114;53.404;-1.502;2024-01-07T11:12:23;7.53;;;3.50;;
23866;SDS011;12114;53.404;-1.502;2024-01-07T11:15:08;9.15;;;3.00;;
23866;SDS011;12114;53.404;-1.502;2024-01-07T11:17:52;8.63;;;3.53;;
23866;SDS011;12114;53.404;-1.502;2024-01-07T11:20:39;8.82;;;3.78;;
23866;SDS011;12114;53.404;-1.502;2024-01-07T11:23:33;6.45;;;3.33;;
23866;SDS011;12114;53.404;-1.502;2024-01-07T11:26:23;6.13;;;3.85;;
23866;SDS011;12114;53.404;-1.502;2024-01-07T11:29:07;5.03;;;3.05;;
23866;SDS011;12114;53.404;-1.502;2024-01-07T11:31:55;6.57;;;3.22;;
23866;SDS011;12114;53.404;-1.502;2024-01-07T11:34:40;9.90;;;3.40;;
23866;SDS011;12114;53.404;-1.502;2024-01-07T11:37:27;8.85;;;3.67;;
23866;SDS011;12114;53.404;-1.502;2024-01-07T11:40:12;10.70;;;3.40;;
23866;SDS011;12114;53.404;-1.502;2024-01-07T11:42:57;9.20;;;3.47;;
23866;SDS011;12114;53.404;-1.502;2024-01-07T11:45:41;5.88;;;3.05;;
23866;SDS011;12114;53.404;-1.502;2024-01-07T11:48:26;5.88;;;2.90;;
23866;SDS011;12114;53.404;-1.502;2024-01-07T11:51:10;6.75;;;2.58;;
23866;SDS011;12114;53.404;-1.502;2024-01-07T11:53:55;10.55;;;3.10;;
23866;SDS011;12114;53.404;-1.502;2024-01-07T11:56:41;6.32;;;3.13;;
23866;SDS011;12114;53.404;-1.502;2024-01-07T11:59:26;9.43;;;3.03;;
23866;SDS011;12114;53.404;-1.502;2024-01-07T12:02:10;7.10;;;2.75;;
23866;SDS011;12114;53.404;-1.502;2024-01-07T12:04:54;7.13;;;3.10;;
23866;SDS011;12114;53.404;-1.502;2024-01-07T12:07:38;5.80;;;2.40;;
23866;SDS011;12114;53.404;-1.502;2024-01-07T12:10:23;7.63;;;3.53;;
23866;SDS011;12114;53.404;-1.502;2024-01-07T12:13:07;5.30;;;2.22;;
23866;SDS011;12114;53.404;-1.502;2024-01-07T12:15:53;8.32;;;2.72;;
23866;SDS011;12114;53.404;-1.502;2024-01-07T12:18:41;3.65;;;1.48;;
23866;SDS011;12114;53.404;-1.502;2024-01-07T12:21:26;9.77;;;2.83;;
23866;SDS011;12114;53.404;-1.502;2024-01-07T12:24:12;7.40;;;3.10;;
23866;SDS011;12114;53.404;-1.502;2024-01-07T12:27:03;6.20;;;2.42;;
23866;SDS011;12114;53.404;-1.502;2024-01-07T12:29:57;8.30;;;2.65;;
23866;SDS011;12114;53.404;-1.502;2024-01-07T12:32:41;9.07;;;3.33;;
23866;SDS011;12114;53.404;-1.502;2024-01-07T12:35:26;6.57;;;2.53;;
23866;SDS011;12114;53.404;-1.502;2024-01-07T12:38:13;9.32;;;2.40;;
23866;SDS011;12114;53.404;-1.502;2024-01-07T12:40:58;5.82;;;1.70;;
23866;SDS011;12114;53.404;-1.502;2024-01-07T12:43:42;6.35;;;1.67;;
23866;SDS011;12114;53.404;-1.502;2024-01-07T12:46:26;6.20;;;1.65;;
23866;SDS011;12114;53.404;-1.502;2024-01-07T12:49:10;7.15;;;1.83;;
23866;SDS011;12114;53.404;-1.502;2024-01-07T12:51:54;4.47;;;1.58;;
23866;SDS011;12114;53.404;-1.502;2024-01-07T12:54:38;5.00;;;1.10;;
23866;SDS011;12114;53.404;-1.502;2024-01-07T12:57:22;6.03;;;1.60;;
23866;SDS011;12114;53.404;-1.502;2024-01-07T13:00:06;5.40;;;1.42;;
23866;SDS011;12114;53.404;-1.502;2024-01-07T13:02:52;6.63;;;2.03;;
23866;SDS011;12114;53.404;-1.502;2024-01-07T13:05:39;5.75;;;1.77;;
23866;SDS011;12114;53.404;-1.502;2024-01-07T13:08:25;4.07;;;1.67;;
23866;SDS011;12114;53.404;-1.502;2024-01-07T13:11:10;4.33;;;1.20;;
23866;SDS011;12114;53.404;-1.502;2024-01-07T13:13:57;6.25;;;2.10;;
23866;SDS011;12114;53.404;-1.502;2024-01-07T13:16:44;6.88;;;2.03;;
23866;SDS011;12114;53.404;-1.502;2024-01-07T13:19:28;5.65;;;1.50;;
23866;SDS011;12114;53.404;-1.502;2024-01-07T13:24:58;8.40;;;1.33;;
23866;SDS011;12114;53.404;-1.502;2024-01-07T13:27:42;3.22;;;1.23;;
23866;SDS011;12114;53.404;-1.502;2024-01-07T13:30:26;3.60;;;1.10;;
23866;SDS011;12114;53.404;-1.502;2024-01-07T13:33:10;5.25;;;1.67;;
23866;SDS011;12114;53.404;-1.502;2024-01-07T13:35:54;7.65;;;1.77;;
23866;SDS011;12114;53.404;-1.502;2024-01-07T13:38:38;2.42;;;1.40;;
23866;SDS011;12114;53.404;-1.502;2024-01-07T13:41:25;3.83;;;1.30;;
23866;SDS011;12114;53.404;-1.502;2024-01-07T13:44:12;4.05;;;1.38;;
23866;SDS011;12114;53.404;-1.502;2024-01-07T13:47:06;4.93;;;1.40;;
23866;SDS011;12114;53.404;-1.502;2024-01-07T13:49:50;5.07;;;1.08;;
23866;SDS011;12114;53.404;-1.502;2024-01-07T13:52:35;6.20;;;1.20;;
23866;SDS011;12114;53.404;-1.502;2024-01-07T13:55:18;2.20;;;1.02;;
23866;SDS011;12114;53.404;-1.502;2024-01-07T13:58:02;7.60;;;1.40;;
23866;SDS011;12114;53.404;-1.502;2024-01-07T14:00:47;5.15;;;0.98;;
23866;SDS011;12114;53.404;-1.502;2024-01-07T14:03:30;5.18;;;1.25;;
23866;SDS011;12114;53.404;-1.502;2024-01-07T14:06:16;5.63;;;1.33;;
23866;SDS011;12114;53.404;-1.502;2024-01-07T14:09:00;5.93;;;1.25;;
23866;SDS011;12114;53.404;-1.502;2024-01-07T14:11:44;4.32;;;1.20;;
23866;SDS011;12114;53.404;-1.502;2024-01-07T14:14:29;4.45;;;1.15;;
23866;SDS011;12114;53.404;-1.502;2024-01-07T14:17:13;2.80;;;1.30;;
23866;SDS011;12114;53.404;-1.502;2024-01-07T14:19:56;5.82;;;1.60;;
23866;SDS011;12114;53.404;-1.502;2024-01-07T14:22:40;5.43;;;1.77;;
23866;SDS011;12114;53.404;-1.502;2024-01-07T14:25:24;7.15;;;1.90;;
23866;SDS011;12114;53.404;-1.502;2024-01-07T14:28:08;9.05;;;3.67;;
23866;SDS011;12114;53.404;-1.502;2024-01-07T14:30:53;5.00;;;2.28;;
23866;SDS011;12114;53.404;-1.502;2024-01-07T14:33:37;3.60;;;2.17;;
23866;SDS011;12114;53.404;-1.502;2024-01-07T14:36:24;8.10;;;3.22;;
23866;SDS011;12114;53.404;-1.502;2024-01-07T14:39:10;5.72;;;2.90;;
23866;SDS011;12114;53.404;-1.502;2024-01-07T14:41:57;3.33;;;1.60;;
23866;SDS011;12114;53.404;-1.502;2024-01-07T14:44:41;7.97;;;2.50;;
23866;SDS011;12114;53.404;-1.502;2024-01-07T14:47:25;8.00;;;1.98;;
23866;SDS011;12114;53.404;-1.502;2024-01-07T14:50:09;7.55;;;2.58;;
23866;SDS011;12114;53.404;-1.502;2024-01-07T14:52:53;5.53;;;2.28;;
23866;SDS011;12114;53.404;-1.502;2024-01-07T14:55:37;6.10;;;2.00;;
23866;SDS011;12114;53.404;-1.502;2024-01-07T14:58:21;3.83;;;1.42;;
23866;SDS011;12114;53.404;-1.502;2024-01-07T15:01:07;3.55;;;1.70;;
23866;SDS011;12114;53.404;-1.502;2024-01-07T15:03:51;3.90;;;1.55;;
23866;SDS011;12114;53.404;-1.502;2024-01-07T15:06:39;5.35;;;1.40;;
23866;SDS011;12114;53.404;-1.502;2024-01-07T15:09:25;6.20;;;1.95;;
23866;SDS011;12114;53.404;-1.502;2024-01-07T15:12:09;2.92;;;1.40;;
23866;SDS011;12114;53.404;-1.502;2024-01-07T15:14:53;4.68;;;1.60;;
23866;SDS011;12114;53.404;-1.502;2024-01-07T15:17:37;7.60;;;1.83;;
23866;SDS011;12114;53.404;-1.502;2024-01-07T15:20:21;7.93;;;1.70;;
23866;SDS011;12114;53.404;-1.502;2024-01-07T15:23:06;5.38;;;1.50;;
23866;SDS011;12114;53.404;-1.502;2024-01-07T15:25:53;7.82;;;1.83;;
23866;SDS011;12114;53.404;-1.502;2024-01-07T15:28:37;5.80;;;2.17;;
23866;SDS011;12114;53.404;-1.502;2024-01-07T15:31:21;9.10;;;2.42;;
23866;SDS011;12114;53.404;-1.502;2024-01-07T15:34:06;10.27;;;2.97;;
23866;SDS011;12114;53.404;-1.502;2024-01-07T15:36:50;4.88;;;2.60;;
23866;SDS011;12114;53.404;-1.502;2024-01-07T15:39:35;6.70;;;2.65;;
23866;SDS011;12114;53.404;-1.502;2024-01-07T15:42:22;7.78;;;2.50;;
23866;SDS011;12114;53.404;-1.502;2024-01-07T15:45:06;6.38;;;2.50;;
23866;SDS011;12114;53.404;-1.502;2024-01-07T15:47:52;6.90;;;2.92;;
23866;SDS011;12114;53.404;-1.502;2024-01-07T15:50:36;7.28;;;2.38;;
23866;SDS011;12114;53.404;-1.502;2024-01-07T15:53:23;5.53;;;2.70;;
23866;SDS011;12114;53.404;-1.502;2024-01-07T15:56:15;8.35;;;2.88;;
23866;SDS011;12114;53.404;-1.502;2024-01-07T15:59:02;8.27;;;2.95;;
23866;SDS011;12114;53.404;-1.502;2024-01-07T16:01:46;7.78;;;2.53;;
23866;SDS011;12114;53.404;-1.502;2024-01-07T16:04:30;6.40;;;2.10;;
23866;SDS011;12114;53.404;-1.502;2024-01-07T16:07:15;6.50;;;2.58;;
23866;SDS011;12114;53.404;-1.502;2024-01-07T16:09:59;11.38;;;2.80;;
23866;SDS011;12114;53.404;-1.502;2024-01-07T16:12:43;9.43;;;3.30;;
23866;SDS011;12114;53.404;-1.502;2024-01-07T16:15:27;9.40;;;3.13;;
23866;SDS011;12114;53.404;-1.502;2024-01-07T16:18:12;6.03;;;2.58;;
23866;SDS011;12114;53.404;-1.502;2024-01-07T16:20:55;10.18;;;2.83;;
23866;SDS011;12114;53.404;-1.502;2024-01-07T16:23:39;10.35;;;3.03;;
23866;SDS011;12114;53.404;-1.502;2024-01-07T16:26:23;9.80;;;3.47;;